Terminal Aerodrome Forecast
Issued by NWS

Home | Current Version | Previous Version | Graphics & Text | Print | Product List | Glossary On
Versions: 1 2 3 4 5 6 7 8 9 10 11 12 13 14 15
000
FTUS43 KIWX 182320
TAFSBN
TAF
KSBN 182320Z 1900/1924 15013KT P6SM BKN250 WS020/19050KT
     FM190800 18008KT P6SM -RA OVC025 WS020/23050KT
     FM191300 17006KT 1SM RA BR OVC003 WS020/24045KT=

USA.gov is the U.S. government's official web portal to all federal, state and local government web resources and services.